Time;durP1;ratioP1;P1;durP2;ratioP2;P2;SDS_P1;SDS_P2;PMS_P1;PMS_P2;Temp;Humidity;BMP_temperature;BMP_pressure;BME280_temperature;BME280_humidity;BME280_pressure;Samples;Min_cycle;Max_cycle;Signal;HPM_P1;HPM_P2
2020/12/07 00:01:07;;;;;;;;;;;;;;;5.81;100.00;99386.25;5094770;28;19974;-66
2020/12/07 00:03:33;;;;;;;;;;;;;;;5.81;100.00;99370.09;5094607;28;19970;-66
2020/12/07 00:06:00;;;;;;;;;;;;;;;5.81;100.00;99383.56;5094360;28;20297;-66
2020/12/07 00:08:26;;;;;;;;;;;;;;;5.81;100.00;99367.41;5094549;28;20301;-66
2020/12/07 00:10:52;;;;;;;;;;;;;;;5.75;100.00;99373.28;5094165;28;19928;-66
2020/12/07 00:13:17;;;;;;;;;;;;;;;5.73;100.00;99377.09;5094447;28;19978;-66
2020/12/07 00:15:44;;;;;;;;;;;;;;;5.70;100.00;99365.59;5094240;28;20284;-66
2020/12/07 00:18:10;;;;;;;;;;;;;;;5.62;100.00;99367.22;5094326;28;19924;-65
2020/12/07 00:20:36;;;;;;;;;;;;;;;5.56;100.00;99367.69;5094233;28;20459;-66
2020/12/07 00:23:02;;;;;;;;;;;;;;;5.60;100.00;99371.84;5098057;28;19924;-66
2020/12/07 00:25:27;;;;;;;;;;;;;;;5.70;100.00;99375.50;5094413;28;19969;-66
2020/12/07 00:27:53;;;;;;;;;;;;;;;5.78;100.00;99374.88;5093678;28;20505;-66
2020/12/07 00:30:19;;;;;;;;;;;;;;;5.75;100.00;99367.91;5094115;28;19924;-66
2020/12/07 00:32:46;;;;;;;;;;;;;;;5.81;100.00;99371.91;5093335;28;19924;-66
2020/12/07 00:35:12;;;;;;;;;;;;;;;5.80;100.00;99380.97;5092923;28;20444;-66
2020/12/07 00:37:38;;;;;;;;;;;;;;;5.81;100.00;99383.56;5093746;28;20120;-66
2020/12/07 00:40:04;;;;;;;;;;;;;;;5.78;100.00;99367.63;5094064;28;19928;-66
2020/12/07 00:42:30;;;;;;;;;;;;;;;5.80;100.00;99354.91;5092903;28;20354;-66
2020/12/07 00:44:56;;;;;;;;;;;;;;;5.77;100.00;99354.31;5093711;28;19924;-65
2020/12/07 00:47:21;;;;;;;;;;;;;;;5.75;100.00;99351.75;5093734;28;20311;-66
2020/12/07 00:49:48;;;;;;;;;;;;;;;5.76;100.00;99345.38;5093737;28;19931;-66
2020/12/07 00:52:14;;;;;;;;;;;;;;;5.83;100.00;99338.50;5092449;28;19931;-66
2020/12/07 00:54:40;;;;;;;;;;;;;;;5.91;100.00;99342.41;5092458;28;19970;-66
2020/12/07 00:57:06;;;;;;;;;;;;;;;5.98;100.00;99339.06;5093000;28;20356;-66
2020/12/07 00:59:37;;;;;;;;;;;;;;;5.96;100.00;99337.47;5092416;28;19925;-66
2020/12/07 01:02:03;;;;;;;;;;;;;;;6.01;100.00;99336.13;5092244;28;19931;-66
2020/12/07 01:04:29;;;;;;;;;;;;;;;6.15;100.00;99323.34;5092285;28;19935;-66
2020/12/07 01:06:59;;;;;;;;;;;;;;;6.13;100.00;99326.16;5093132;28;20370;-66
2020/12/07 01:09:25;;;;;;;;;;;;;;;6.18;100.00;99318.53;5091882;28;19931;-66
2020/12/07 01:11:55;;;;;;;;;;;;;;;6.24;100.00;99322.56;5092120;28;19963;-66
2020/12/07 01:14:21;;;;;;;;;;;;;;;6.30;100.00;99323.88;5093397;28;20357;-66
2020/12/07 01:16:49;;;;;;;;;;;;;;;6.30;100.00;99318.47;5091710;28;19967;-66
2020/12/07 01:19:15;;;;;;;;;;;;;;;6.29;100.00;99309.50;5091963;28;19924;-66
2020/12/07 01:21:41;;;;;;;;;;;;;;;6.34;100.00;99315.38;5091737;28;20011;-66
2020/12/07 01:24:10;;;;;;;;;;;;;;;6.23;100.00;99323.53;5091677;28;19959;-66
2020/12/07 01:26:36;;;;;;;;;;;;;;;6.20;100.00;99319.25;5092481;28;19924;-66
2020/12/07 01:29:02;;;;;;;;;;;;;;;6.15;100.00;99313.41;5092660;28;20269;-66
2020/12/07 01:31:28;;;;;;;;;;;;;;;6.10;100.00;99309.41;5091902;28;19950;-66
2020/12/07 01:33:54;;;;;;;;;;;;;;;6.05;100.00;99312.47;5091567;28;19970;-66
2020/12/07 01:36:20;;;;;;;;;;;;;;;6.01;100.00;99305.63;5092699;28;20114;-66
2020/12/07 01:38:46;;;;;;;;;;;;;;;5.96;100.00;99305.13;5091608;28;19924;-66
2020/12/07 01:41:13;;;;;;;;;;;;;;;5.94;100.00;99296.34;5091495;28;19924;-66
2020/12/07 01:43:39;;;;;;;;;;;;;;;5.92;100.00;99298.28;5092657;28;19928;-66
2020/12/07 01:46:06;;;;;;;;;;;;;;;5.90;100.00;99301.13;5090891;28;19951;-66
2020/12/07 01:48:33;;;;;;;;;;;;;;;5.92;100.00;99298.28;5091403;28;19924;-66
2020/12/07 01:51:05;;;;;;;;;;;;;;;5.90;100.00;99282.28;5091338;28;19935;-66
2020/12/07 01:53:33;;;;;;;;;;;;;;;5.85;100.00;99279.97;5092809;28;20119;-66
2020/12/07 01:55:59;;;;;;;;;;;;;;;5.88;100.00;99292.34;5091902;28;20082;-66
2020/12/07 01:58:27;;;;;;;;;;;;;;;5.84;100.00;99280.13;5091500;28;20389;-66
2020/12/07 02:00:53;;;;;;;;;;;;;;;5.78;100.00;99289.53;5091093;28;19924;-65
2020/12/07 02:03:19;;;;;;;;;;;;;;;5.78;100.00;99278.78;5092013;28;19932;-66
2020/12/07 02:05:45;;;;;;;;;;;;;;;5.76;100.00;99291.53;5090919;28;19924;-66
2020/12/07 02:08:17;;;;;;;;;;;;;;;5.82;100.00;99298.22;5090362;28;19924;-66
2020/12/07 02:10:58;;;;;;;;;;;;;;;5.78;100.00;99291.41;5090965;28;19928;-66
2020/12/07 02:13:29;;;;;;;;;;;;;;;5.79;100.00;99304.72;5091178;28;19924;-66
2020/12/07 02:15:56;;;;;;;;;;;;;;;5.85;100.00;99303.34;5090861;28;19924;-66
2020/12/07 02:18:26;;;;;;;;;;;;;;;5.87;100.00;99294.16;5090941;28;19924;-66
2020/12/07 02:20:56;;;;;;;;;;;;;;;5.90;100.00;99279.56;5091961;28;19928;-66
2020/12/07 02:23:41;;;;;;;;;;;;;;;5.94;100.00;99278.31;5091744;28;19924;-66
2020/12/07 02:26:15;;;;;;;;;;;;;;;5.97;100.00;99271.84;5090288;28;20013;-66
2020/12/07 02:28:41;;;;;;;;;;;;;;;6.00;100.00;99277.00;5090703;28;19970;-66
2020/12/07 02:31:09;;;;;;;;;;;;;;;6.01;100.00;99262.53;5090397;28;19960;-66
2020/12/07 02:33:37;;;;;;;;;;;;;;;6.02;100.00;99280.41;5091416;28;19924;-66
2020/12/07 02:36:08;;;;;;;;;;;;;;;6.01;100.00;99271.50;5090360;28;19924;-66
2020/12/07 02:38:36;;;;;;;;;;;;;;;6.00;100.00;99269.78;5090521;28;19924;-66
2020/12/07 02:41:02;;;;;;;;;;;;;;;5.98;100.00;99266.34;5089739;28;20274;-66
2020/12/07 02:43:28;;;;;;;;;;;;;;;5.96;100.00;99264.72;5090539;28;20305;-66
2020/12/07 02:45:55;;;;;;;;;;;;;;;5.90;100.00;99251.81;5090230;28;19924;-66
2020/12/07 02:48:21;;;;;;;;;;;;;;;5.80;100.00;99249.88;5091850;28;19924;-66
2020/12/07 02:50:52;;;;;;;;;;;;;;;5.78;100.00;99254.53;5090357;28;19928;-66
2020/12/07 02:53:19;;;;;;;;;;;;;;;5.73;100.00;99240.59;5090266;28;19975;-65
2020/12/07 02:55:46;;;;;;;;;;;;;;;5.71;100.00;99247.97;5091666;28;19970;-66
2020/12/07 02:58:12;;;;;;;;;;;;;;;5.66;100.00;99245.66;5089690;28;19932;-66
2020/12/07 03:00:40;;;;;;;;;;;;;;;5.64;100.00;99246.78;5090046;28;20313;-66
2020/12/07 03:03:06;;;;;;;;;;;;;;;5.63;100.00;99245.09;5090158;28;20089;-66
2020/12/07 03:05:36;;;;;;;;;;;;;;;5.61;100.00;99241.66;5090092;28;20029;-66
2020/12/07 03:08:09;;;;;;;;;;;;;;;5.63;100.00;99242.38;5089913;28;19924;-66
2020/12/07 03:10:36;;;;;;;;;;;;;;;5.62;100.00;99251.44;5090295;28;19927;-65
2020/12/07 03:13:03;;;;;;;;;;;;;;;5.59;100.00;99243.63;5090068;28;20293;-66
2020/12/07 03:15:31;;;;;;;;;;;;;;;5.59;100.00;99243.63;5091121;28;20279;-66
2020/12/07 03:17:57;;;;;;;;;;;;;;;5.55;100.00;99236.81;5089511;28;19950;-66
2020/12/07 03:20:33;;;;;;;;;;;;;;;5.51;100.00;99239.72;5092913;28;19924;-66
2020/12/07 03:22:59;;;;;;;;;;;;;;;5.50;100.00;99248.78;5094146;28;20288;-66
2020/12/07 03:25:25;;;;;;;;;;;;;;;5.48;100.00;99241.84;5093876;28;19951;-66
2020/12/07 03:27:52;;;;;;;;;;;;;;;5.43;100.00;99242.22;5093873;28;20386;-65
2020/12/07 03:30:18;;;;;;;;;;;;;;;5.39;100.00;99248.84;5095357;28;20019;-66
2020/12/07 03:32:44;;;;;;;;;;;;;;;5.39;100.00;99243.44;5093633;28;19931;-66
2020/12/07 03:35:10;;;;;;;;;;;;;;;5.35;100.00;99247.38;5094049;28;20327;-66
2020/12/07 03:37:36;;;;;;;;;;;;;;;5.31;100.00;99243.25;5093774;28;19931;-66
2020/12/07 03:40:04;;;;;;;;;;;;;;;5.28;100.00;99246.19;5094028;28;19971;-66
2020/12/07 03:42:38;;;;;;;;;;;;;;;5.22;100.00;99252.06;5093778;28;20265;-65
2020/12/07 03:45:07;;;;;;;;;;;;;;;5.16;100.00;99253.44;5093680;28;19924;-66
2020/12/07 03:47:34;;;;;;;;;;;;;;;5.13;100.00;99246.47;5093362;28;20351;-66
2020/12/07 03:50:01;;;;;;;;;;;;;;;5.11;100.00;99250.25;5093693;28;19973;-66
2020/12/07 03:52:26;;;;;;;;;;;;;;;5.03;100.00;99257.09;5093337;28;19924;-66
2020/12/07 03:54:55;;;;;;;;;;;;;;;4.97;100.00;99246.88;5093104;28;19956;-66
2020/12/07 03:57:21;;;;;;;;;;;;;;;4.90;100.00;99252.88;5093370;28;19986;-66
2020/12/07 03:59:48;;;;;;;;;;;;;;;4.82;100.00;99243.59;5093425;28;20015;-66
2020/12/07 04:02:15;;;;;;;;;;;;;;;4.76;100.00;99249.47;5093486;28;19959;-66
2020/12/07 04:04:45;;;;;;;;;;;;;;;4.74;100.00;99258.63;5093324;28;19931;-66
2020/12/07 04:07:11;;;;;;;;;;;;;;;4.67;100.00;99260.94;5094219;28;19986;-66
2020/12/07 04:09:37;;;;;;;;;;;;;;;4.63;100.00;99267.56;5093266;28;19924;-66
2020/12/07 04:12:03;;;;;;;;;;;;;;;4.59;100.00;99260.72;5094375;28;20388;-66
2020/12/07 04:14:29;;;;;;;;;;;;;;;4.56;100.00;99256.44;5094508;28;19928;-66
2020/12/07 04:16:54;;;;;;;;;;;;;;;4.55;100.00;99262.78;5094086;28;19924;-66
2020/12/07 04:19:21;;;;;;;;;;;;;;;4.52;100.00;99253.13;5094434;28;19931;-66
2020/12/07 04:21:47;;;;;;;;;;;;;;;4.55;100.00;99253.88;5094190;28;19971;-66
2020/12/07 04:24:12;;;;;;;;;;;;;;;4.54;100.00;99255.69;5094190;28;19931;-65
2020/12/07 04:26:38;;;;;;;;;;;;;;;4.58;100.00;99272.44;5093364;28;20364;-66
2020/12/07 04:29:04;;;;;;;;;;;;;;;4.55;100.00;99256.56;5094223;28;19931;-66
2020/12/07 04:31:30;;;;;;;;;;;;;;;4.53;100.00;99245.94;5093121;28;20363;-66
2020/12/07 04:33:56;;;;;;;;;;;;;;;4.50;100.00;99249.72;5093880;28;19943;-66
2020/12/07 04:36:22;;;;;;;;;;;;;;;4.49;100.00;99252.50;5093790;28;20429;-66
2020/12/07 04:38:48;;;;;;;;;;;;;;;4.46;100.00;99253.63;5093952;28;20391;-66
2020/12/07 04:41:14;;;;;;;;;;;;;;;4.45;100.00;99265.34;5092597;28;19924;-66
2020/12/07 04:43:40;;;;;;;;;;;;;;;4.41;100.00;99246.88;5093775;28;19935;-66
2020/12/07 04:46:06;;;;;;;;;;;;;;;4.38;100.00;99241.75;5093224;28;20022;-66
2020/12/07 04:48:33;;;;;;;;;;;;;;;4.32;100.00;99243.13;5093808;28;19931;-66
2020/12/07 04:50:59;;;;;;;;;;;;;;;4.29;100.00;99251.38;5093476;28;19925;-66
2020/12/07 04:53:26;;;;;;;;;;;;;;;4.27;100.00;99251.53;5092345;28;20343;-66
2020/12/07 04:55:52;;;;;;;;;;;;;;;4.25;100.00;99241.88;5093321;28;19928;-66
2020/12/07 04:58:19;;;;;;;;;;;;;;;4.22;100.00;99252.88;5093370;28;19924;-66
2020/12/07 05:00:44;;;;;;;;;;;;;;;4.23;100.00;99246.53;5093208;28;20580;-66
2020/12/07 05:03:10;;;;;;;;;;;;;;;4.26;100.00;99236.41;5093690;28;19924;-66
2020/12/07 05:05:36;;;;;;;;;;;;;;;4.29;100.00;99248.72;5093522;28;20377;-67
2020/12/07 05:08:02;;;;;;;;;;;;;;;4.30;100.00;99239.69;5093372;28;19932;-66
2020/12/07 05:10:32;;;;;;;;;;;;;;;4.32;100.00;99232.38;5093451;28;19924;-67
2020/12/07 05:13:06;;;;;;;;;;;;;;;4.31;100.00;99242.25;5093227;28;20530;-66
2020/12/07 05:15:37;;;;;;;;;;;;;;;4.30;100.00;99229.81;5093658;28;20377;-67
2020/12/07 05:18:03;;;;;;;;;;;;;;;4.30;100.00;99242.38;5093085;28;19959;-66
2020/12/07 05:20:29;;;;;;;;;;;;;;;4.28;100.00;99241.66;5092881;28;19924;-67
2020/12/07 05:22:54;;;;;;;;;;;;;;;4.28;100.00;99244.34;5093194;28;19928;-66
2020/12/07 05:25:20;;;;;;;;;;;;;;;4.27;100.00;99251.53;5092874;28;20392;-66
2020/12/07 05:27:49;;;;;;;;;;;;;;;4.28;100.00;99255.91;5092694;28;19932;-67
2020/12/07 05:30:20;;;;;;;;;;;;;;;4.30;100.00;99263.84;5093292;28;20386;-67
2020/12/07 05:32:46;;;;;;;;;;;;;;;4.30;100.00;99263.84;5092811;28;20366;-67
2020/12/07 05:35:12;;;;;;;;;;;;;;;4.31;100.00;99266.41;5091856;28;19931;-67
2020/12/07 05:37:38;;;;;;;;;;;;;;;4.33;100.00;99267.16;5092832;28;19924;-67
2020/12/07 05:40:05;;;;;;;;;;;;;;;4.32;100.00;99264.59;5092676;28;19967;-66
2020/12/07 05:42:31;;;;;;;;;;;;;;;4.31;100.00;99276.31;5092120;28;20372;-66
2020/12/07 05:44:58;;;;;;;;;;;;;;;4.29;100.00;99280.94;5092644;28;20019;-66
2020/12/07 05:47:25;;;;;;;;;;;;;;;4.25;100.00;99280.34;5096302;28;19986;-67
2020/12/07 05:49:51;;;;;;;;;;;;;;;4.24;100.00;99283.16;5092205;28;19928;-66
2020/12/07 05:52:21;;;;;;;;;;;;;;;4.19;100.00;99291.56;5109072;28;19923;-66
2020/12/07 05:54:48;;;;;;;;;;;;;;;4.15;100.00;99301.69;5103323;27;20353;-66
2020/12/07 05:57:16;;;;;;;;;;;;;;;4.12;100.00;99291.19;5092074;28;19959;-67
2020/12/07 05:59:45;;;;;;;;;;;;;;;4.12;100.00;99301.91;5095379;28;19959;-66
2020/12/07 06:02:15;;;;;;;;;;;;;;;4.10;100.00;99301.19;5097552;28;19932;-66
2020/12/07 06:04:41;;;;;;;;;;;;;;;4.10;100.00;99293.16;5091497;28;19950;-66
2020/12/07 06:07:08;;;;;;;;;;;;;;;4.13;100.00;99292.03;5091574;28;19924;-66
2020/12/07 06:09:34;;;;;;;;;;;;;;;4.11;100.00;99294.84;5095698;28;20019;-66
2020/12/07 06:12:02;;;;;;;;;;;;;;;4.14;100.00;99288.38;5100676;28;19927;-66
2020/12/07 06:14:28;;;;;;;;;;;;;;;4.17;100.00;99294.38;5091255;28;19924;-66
2020/12/07 06:16:54;;;;;;;;;;;;;;;4.20;100.00;99301.34;5110058;28;19964;-68
2020/12/07 06:19:21;;;;;;;;;;;;;;;4.25;100.00;99292.91;5101832;28;19935;-66
2020/12/07 06:21:52;;;;;;;;;;;;;;;4.28;100.00;99306.13;5091537;28;20335;-67
2020/12/07 06:24:18;;;;;;;;;;;;;;;4.30;100.00;99304.16;5091965;28;20018;-67
2020/12/07 06:26:43;;;;;;;;;;;;;;;4.31;100.00;99306.72;5083664;28;19932;-67
2020/12/07 06:29:12;;;;;;;;;;;;;;;4.34;100.00;99302.94;5085030;28;19950;-66
2020/12/07 06:31:38;;;;;;;;;;;;;;;4.35;100.00;99307.34;5090777;28;20022;-67
2020/12/07 06:34:09;;;;;;;;;;;;;;;4.37;100.00;99324.22;5090599;28;19985;-68
2020/12/07 06:36:37;;;;;;;;;;;;;;;4.39;100.00;99321.41;5092214;28;19956;-69
2020/12/07 06:39:04;;;;;;;;;;;;;;;4.41;100.00;99332.88;5088961;28;19963;-69
2020/12/07 06:41:34;;;;;;;;;;;;;;;4.43;100.00;99331.78;5090869;28;19964;-67
2020/12/07 06:44:01;;;;;;;;;;;;;;;4.43;100.00;99326.41;5097378;28;19932;-67
2020/12/07 06:46:46;;;;;;;;;;;;;;;4.43;100.00;99331.78;5108719;28;19970;-67
2020/12/07 06:49:11;;;;;;;;;;;;;;;4.44;100.00;99336.19;5098629;28;20036;-68
2020/12/07 06:51:39;;;;;;;;;;;;;;;4.46;100.00;99325.31;5090519;28;19945;-67
2020/12/07 06:54:13;;;;;;;;;;;;;;;4.47;100.00;99344.00;5092972;28;19963;-67
2020/12/07 06:56:39;;;;;;;;;;;;;;;4.50;100.00;99359.03;5091218;28;19970;-67
2020/12/07 06:59:07;;;;;;;;;;;;;;;4.49;100.00;99360.00;5110439;28;19924;-67
2020/12/07 07:01:33;;;;;;;;;;;;;;;4.47;100.00;99359.28;5111725;28;19959;-67
2020/12/07 07:03:59;;;;;;;;;;;;;;;4.46;100.00;99361.13;5093525;28;20025;-66
2020/12/07 07:06:25;;;;;;;;;;;;;;;4.39;100.00;99348.28;5090770;28;19925;-67
2020/12/07 07:08:53;;;;;;;;;;;;;;;4.34;100.00;99357.53;5091162;28;19924;-67
2020/12/07 07:11:19;;;;;;;;;;;;;;;4.31;100.00;99359.59;5091083;28;20296;-67
2020/12/07 07:13:46;;;;;;;;;;;;;;;4.24;100.00;99377.19;5091164;28;19924;-67
2020/12/07 07:16:12;;;;;;;;;;;;;;;4.21;100.00;99374.69;5091301;28;19963;-67
2020/12/07 07:18:40;;;;;;;;;;;;;;;4.14;100.00;99372.50;5103858;28;19960;-67
2020/12/07 07:21:06;;;;;;;;;;;;;;;4.10;100.00;99367.47;5111721;28;19993;-67
2020/12/07 07:23:36;;;;;;;;;;;;;;;4.07;100.00;99368.56;5104435;28;19924;-67
2020/12/07 07:26:19;;;;;;;;;;;;;;;4.05;100.00;99369.63;5111225;28;20102;-67
2020/12/07 07:28:45;;;;;;;;;;;;;;;4.03;100.00;99372.44;5097128;28;20385;-67
2020/12/07 07:31:12;;;;;;;;;;;;;;;4.02;100.00;99370.72;5091930;28;19931;-67
2020/12/07 07:33:37;;;;;;;;;;;;;;;4.03;100.00;99372.44;5090689;28;19975;-67
2020/12/07 07:36:03;;;;;;;;;;;;;;;4.03;100.00;99372.44;5090598;28;20401;-66
2020/12/07 07:38:30;;;;;;;;;;;;;;;4.02;100.00;99382.34;5091433;28;20431;-66
2020/12/07 07:40:56;;;;;;;;;;;;;;;4.05;100.00;99381.25;5091017;28;20262;-67
2020/12/07 07:43:24;;;;;;;;;;;;;;;4.04;100.00;99384.91;5107841;28;19969;-66
2020/12/07 07:45:56;;;;;;;;;;;;;;;4.07;100.00;99383.81;5100756;28;19974;-66
2020/12/07 07:48:25;;;;;;;;;;;;;;;4.06;100.00;99382.94;5091058;28;19924;-67
2020/12/07 07:51:33;;;;;;;;;;;;;;;4.07;100.00;99381.13;5089900;28;19924;-66
2020/12/07 07:54:56;;;;;;;;;;;;;;;4.07;100.00;99381.97;5095526;28;19934;-67
2020/12/07 08:01:05;;;;;;;;;;;;;;;4.10;100.00;99381.78;5072401;28;19938;-66
2020/12/07 08:06:00;;;;;;;;;;;;;;;4.14;100.00;99387.75;5070419;28;19924;-67
2020/12/07 08:07:15;;;;;;;;;;;;;;;4.15;100.00;99386.78;5083412;28;19924;-67
2020/12/07 08:17:47;;;;;;;;;;;;;;;4.24;100.00;99387.94;5094588;28;19970;-67
2020/12/07 08:20:14;;;;;;;;;;;;;;;4.25;100.00;99389.63;5105317;28;20266;-67
2020/12/07 08:22:39;;;;;;;;;;;;;;;4.27;100.00;99395.75;5103101;28;20301;-67
2020/12/07 08:25:06;;;;;;;;;;;;;;;4.31;100.00;99389.16;5094210;28;19998;-67
2020/12/07 08:27:32;;;;;;;;;;;;;;;4.35;100.00;99382.56;5094020;28;19928;-67
2020/12/07 08:29:59;;;;;;;;;;;;;;;4.37;100.00;99386.00;5094072;28;20415;-67
2020/12/07 08:32:24;;;;;;;;;;;;;;;4.41;100.00;99390.16;5094081;28;20009;-67
2020/12/07 08:34:50;;;;;;;;;;;;;;;4.43;100.00;99396.28;5094239;28;19932;-67
2020/12/07 08:37:17;;;;;;;;;;;;;;;4.46;100.00;99401.44;5094713;28;19957;-67
2020/12/07 08:39:43;;;;;;;;;;;;;;;4.48;100.00;99399.47;5104997;28;20404;-67
2020/12/07 08:42:09;;;;;;;;;;;;;;;4.51;100.00;99399.22;5097150;28;20441;-67
2020/12/07 08:44:35;;;;;;;;;;;;;;;4.52;100.00;99398.25;5114128;28;20033;-67
2020/12/07 08:47:01;;;;;;;;;;;;;;;4.54;100.00;99403.50;5093703;28;20343;-67
2020/12/07 08:49:26;;;;;;;;;;;;;;;4.56;100.00;99400.69;5093603;28;19924;-67
2020/12/07 08:51:52;;;;;;;;;;;;;;;4.55;100.00;99405.22;5093675;28;19985;-67
2020/12/07 08:54:19;;;;;;;;;;;;;;;4.55;100.00;99397.16;5093514;28;19931;-67
2020/12/07 08:56:45;;;;;;;;;;;;;;;4.58;100.00;99402.28;5093949;28;19924;-67
2020/12/07 08:59:10;;;;;;;;;;;;;;;4.58;100.00;99407.66;5093597;28;19931;-67
2020/12/07 09:01:36;;;;;;;;;;;;;;;4.59;100.00;99417.44;5093170;28;20286;-67
2020/12/07 09:04:02;;;;;;;;;;;;;;;4.60;100.00;99407.56;5093495;28;19931;-67
2020/12/07 09:06:28;;;;;;;;;;;;;;;4.61;100.00;99407.44;5092355;28;19931;-67
2020/12/07 09:08:54;;;;;;;;;;;;;;;4.63;100.00;99404.63;5093187;28;20022;-66
2020/12/07 09:11:21;;;;;;;;;;;;;;;4.65;100.00;99397.28;5093098;28;20437;-66
2020/12/07 09:13:47;;;;;;;;;;;;;;;4.69;100.00;99409.56;5108558;28;20051;-66
2020/12/07 09:16:13;;;;;;;;;;;;;;;4.71;100.00;99399.50;5094885;28;20007;-66
2020/12/07 09:18:40;;;;;;;;;;;;;;;4.70;100.00;99416.63;5099220;28;20385;-66
2020/12/07 09:21:07;;;;;;;;;;;;;;;4.71;100.00;99415.66;5093427;28;20023;-67
2020/12/07 09:23:33;;;;;;;;;;;;;;;4.69;100.00;99410.38;5101052;28;19928;-66
2020/12/07 09:25:58;;;;;;;;;;;;;;;4.67;100.00;99409.63;5092656;28;19928;-68
2020/12/07 09:28:25;;;;;;;;;;;;;;;4.68;100.00;99411.34;5102872;28;19930;-69
2020/12/07 09:30:51;;;;;;;;;;;;;;;4.67;100.00;99419.53;5099906;28;19924;-67
2020/12/07 09:33:17;;;;;;;;;;;;;;;4.68;100.00;99414.03;5092773;28;19931;-66
2020/12/07 09:35:42;;;;;;;;;;;;;;;4.68;100.00;99411.34;5098156;28;19972;-68
2020/12/07 09:38:09;;;;;;;;;;;;;;;4.68;100.00;99410.50;5102019;28;19924;-68
2020/12/07 09:40:34;;;;;;;;;;;;;;;4.68;100.00;99414.03;5092659;28;20011;-67
2020/12/07 09:43:01;;;;;;;;;;;;;;;4.67;100.00;99416.84;5095865;28;20047;-67
2020/12/07 09:45:27;;;;;;;;;;;;;;;4.67;100.00;99423.09;5112899;28;20373;-67
2020/12/07 09:47:53;;;;;;;;;;;;;;;4.68;100.00;99416.75;5110290;27;20018;-67
2020/12/07 09:50:19;;;;;;;;;;;;;;;4.69;100.00;99428.38;5092689;28;20293;-67
2020/12/07 09:52:45;;;;;;;;;;;;;;;4.71;100.00;99430.94;5093524;28;19924;-66
2020/12/07 09:55:11;;;;;;;;;;;;;;;4.70;100.00;99430.06;5092069;28;20412;-67
2020/12/07 09:57:36;;;;;;;;;;;;;;;4.70;100.00;99427.38;5098283;28;19931;-67
2020/12/07 10:00:03;;;;;;;;;;;;;;;4.66;100.00;99423.19;5112587;28;20494;-67
2020/12/07 10:02:31;;;;;;;;;;;;;;;4.66;100.00;99429.47;5103191;28;19928;-67
2020/12/07 10:04:57;;;;;;;;;;;;;;;4.65;100.00;99426.84;5092264;28;19924;-66
2020/12/07 10:07:22;;;;;;;;;;;;;;;4.63;100.00;99437.75;5099114;28;20308;-66
2020/12/07 10:09:48;;;;;;;;;;;;;;;4.63;100.00;99434.19;5112204;28;19934;-66
2020/12/07 10:12:14;;;;;;;;;;;;;;;4.62;100.00;99437.84;5110529;28;19924;-67
2020/12/07 10:14:40;;;;;;;;;;;;;;;4.61;100.00;99430.75;5112447;28;19989;-66
2020/12/07 10:17:07;;;;;;;;;;;;;;;4.58;100.00;99425.63;5098614;28;21309;-66
2020/12/07 10:19:33;;;;;;;;;;;;;;;4.58;100.00;99431.00;5095503;28;19924;-67
2020/12/07 10:22:02;;;;;;;;;;;;;;;4.58;100.00;99426.47;5091293;28;19955;-66
2020/12/07 10:24:28;;;;;;;;;;;;;;;4.61;100.00;99423.56;5109091;28;19955;-67
2020/12/07 10:26:54;;;;;;;;;;;;;;;4.65;100.00;99416.97;5092712;28;19928;-67
2020/12/07 10:29:20;;;;;;;;;;;;;;;4.67;100.00;99417.69;5090816;28;19924;-67
2020/12/07 10:31:45;;;;;;;;;;;;;;;4.68;100.00;99426.66;5105991;28;19969;-67
2020/12/07 10:34:11;;;;;;;;;;;;;;;4.68;100.00;99427.50;5099710;28;20408;-66
2020/12/07 10:36:38;;;;;;;;;;;;;;;4.68;100.00;99432.03;5091425;28;19924;-66
2020/12/07 10:39:06;;;;;;;;;;;;;;;4.69;100.00;99425.69;5091482;28;19939;-66
2020/12/07 10:41:32;;;;;;;;;;;;;;;4.73;100.00;99413.72;5091602;28;19959;-66
2020/12/07 10:43:57;;;;;;;;;;;;;;;4.75;100.00;99416.28;5091859;28;19985;-66
2020/12/07 10:46:23;;;;;;;;;;;;;;;4.75;100.00;99427.88;5091371;28;19946;-66
2020/12/07 10:48:49;;;;;;;;;;;;;;;4.74;100.00;99428.00;5090704;28;20348;-66
2020/12/07 10:51:16;;;;;;;;;;;;;;;4.77;100.00;99425.06;5091446;28;20019;-66
2020/12/07 10:53:43;;;;;;;;;;;;;;;4.78;100.00;99432.16;5090230;28;19931;-66
2020/12/07 10:56:10;;;;;;;;;;;;;;;4.79;100.00;99428.50;5090661;28;20032;-67
2020/12/07 10:58:36;;;;;;;;;;;;;;;4.82;100.00;99436.31;5091457;28;19954;-67
2020/12/07 11:01:02;;;;;;;;;;;;;;;4.82;100.00;99429.13;5091315;28;19924;-67
2020/12/07 11:03:27;;;;;;;;;;;;;;;4.84;100.00;99431.69;5092498;28;19931;-66
2020/12/07 11:05:54;;;;;;;;;;;;;;;4.86;100.00;99441.34;5093206;28;19932;-66
2020/12/07 11:08:21;;;;;;;;;;;;;;;4.86;100.00;99446.72;5111576;28;20390;-66
2020/12/07 11:10:52;;;;;;;;;;;;;;;4.91;100.00;99449.03;5097280;28;19974;-66
2020/12/07 11:13:26;;;;;;;;;;;;;;;4.94;100.00;99443.41;5091331;28;19923;-66
2020/12/07 11:15:52;;;;;;;;;;;;;;;4.98;100.00;99444.03;5092071;28;19924;-66
2020/12/07 11:18:18;;;;;;;;;;;;;;;4.98;100.00;99444.03;5111557;28;19931;-66
2020/12/07 11:20:43;;;;;;;;;;;;;;;4.99;100.00;99451.16;5111051;28;19954;-66
2020/12/07 11:23:09;;;;;;;;;;;;;;;4.98;100.00;99446.72;5091999;28;19924;-66
2020/12/07 11:25:35;;;;;;;;;;;;;;;4.94;100.00;99451.47;5102261;28;19950;-66
2020/12/07 11:28:02;;;;;;;;;;;;;;;4.97;100.00;99455.78;5090981;28;19932;-67
2020/12/07 11:30:27;;;;;;;;;;;;;;;4.97;100.00;99448.56;5092360;28;19924;-66
2020/12/07 11:32:53;;;;;;;;;;;;;;;4.97;100.00;99451.28;5092687;28;19970;-67
2020/12/07 11:35:19;;;;;;;;;;;;;;;4.98;100.00;99453.00;5091257;28;19946;-67
2020/12/07 11:37:48;;;;;;;;;;;;;;;5.00;100.00;99453.72;5100139;28;19923;-67
2020/12/07 11:40:17;;;;;;;;;;;;;;;5.00;100.00;99460.94;5112012;28;20349;-68
2020/12/07 11:42:49;;;;;;;;;;;;;;;5.00;100.00;99455.56;5107994;28;19931;-67
2020/12/07 11:45:16;;;;;;;;;;;;;;;4.99;100.00;99453.84;5111977;28;19955;-69
2020/12/07 11:47:41;;;;;;;;;;;;;;;4.98;100.00;99449.41;5106824;28;19924;-67
2020/12/07 11:50:07;;;;;;;;;;;;;;;4.97;100.00;99453.97;5095039;28;19977;-68
2020/12/07 11:52:33;;;;;;;;;;;;;;;4.97;100.00;99456.66;5094727;28;19930;-67
2020/12/07 11:54:59;;;;;;;;;;;;;;;5.00;100.00;99447.47;5094459;28;20409;-67
2020/12/07 11:57:25;;;;;;;;;;;;;;;5.00;100.00;99448.31;5103694;28;20014;-67
2020/12/07 11:59:50;;;;;;;;;;;;;;;5.03;100.00;99449.91;5103673;28;19928;-67
2020/12/07 12:02:17;;;;;;;;;;;;;;;5.05;100.00;99455.19;5094408;28;19931;-68
2020/12/07 12:04:43;;;;;;;;;;;;;;;5.06;100.00;99459.59;5094843;28;19931;-68
2020/12/07 12:07:09;;;;;;;;;;;;;;;5.06;100.00;99463.13;5094220;28;19928;-67
2020/12/07 12:09:37;;;;;;;;;;;;;;;5.07;100.00;99456.78;5094808;28;19924;-67
2020/12/07 12:12:03;;;;;;;;;;;;;;;5.11;100.00;99452.00;5094402;28;20031;-67
2020/12/07 12:14:29;;;;;;;;;;;;;;;5.13;100.00;99456.31;5099491;28;19923;-67
2020/12/07 12:16:56;;;;;;;;;;;;;;;5.15;100.00;99451.63;5092829;28;20032;-67
2020/12/07 12:19:23;;;;;;;;;;;;;;;5.18;100.00;99455.94;5094291;28;20053;-67
2020/12/07 12:21:48;;;;;;;;;;;;;;;5.22;100.00;99465.47;5094129;28;20382;-67
2020/12/07 12:24:14;;;;;;;;;;;;;;;5.20;100.00;99457.50;5099065;28;19928;-67
2020/12/07 12:26:41;;;;;;;;;;;;;;;5.18;100.00;99472.94;5099295;28;20340;-67
2020/12/07 12:29:07;;;;;;;;;;;;;;;5.19;100.00;99479.16;5098053;28;19924;-66
2020/12/07 12:31:33;;;;;;;;;;;;;;;5.19;100.00;99474.63;5094095;28;20488;-68
2020/12/07 12:33:59;;;;;;;;;;;;;;;5.20;100.00;99470.97;5097621;28;20015;-68
2020/12/07 12:36:27;;;;;;;;;;;;;;;5.23;100.00;99475.25;5114281;27;19927;-69
2020/12/07 12:38:53;;;;;;;;;;;;;;;5.25;100.00;99477.81;5111272;28;19932;-68
2020/12/07 12:41:19;;;;;;;;;;;;;;;5.29;100.00;99488.25;5094708;28;20378;-68
2020/12/07 12:43:45;;;;;;;;;;;;;;;5.34;100.00;99487.84;5094138;28;19931;-68
2020/12/07 12:46:10;;;;;;;;;;;;;;;5.36;100.00;99497.53;5093477;28;20379;-68
2020/12/07 12:48:36;;;;;;;;;;;;;;;5.38;100.00;99508.16;5094231;28;19928;-68
2020/12/07 12:51:03;;;;;;;;;;;;;;;5.35;100.00;99498.50;5097072;28;19924;-68
2020/12/07 12:53:30;;;;;;;;;;;;;;;5.38;100.00;99508.16;5093602;28;19975;-68
2020/12/07 12:55:56;;;;;;;;;;;;;;;5.39;100.00;99517.97;5105754;28;19924;-67
2020/12/07 12:58:22;;;;;;;;;;;;;;;5.40;100.00;99529.56;5102596;28;19924;-67
2020/12/07 13:00:48;;;;;;;;;;;;;;;5.39;100.00;99526.03;5093299;28;19924;-67